Time;durP1;ratioP1;P1;durP2;ratioP2;P2;SDS_P1;SDS_P2;PMS_P1;PMS_P2;Temp;Humidity;BMP_temperature;BMP_pressure;BME280_temperature;BME280_humidity;BME280_pressure;Samples;Min_cycle;Max_cycle;Signal;HPM_P1;HPM_P2
2022/02/06 00:00:42;;;;;;;;;;;7.10;99.90;;;;;;5197535;27;44342;-80
2022/02/06 00:03:13;;;;;;;;;;;7.10;99.90;;;;;;5196400;27;45356;-80
2022/02/06 00:05:43;;;;;;;;;;;7.10;99.90;;;;;;5197953;27;20021;-80
2022/02/06 00:08:12;;;;;;;;;;;7.10;99.90;;;;;;5196810;27;43083;-80
2022/02/06 00:10:48;;;;;;;;;;;7.10;99.90;;;;;;5197983;27;44015;-80
2022/02/06 00:13:17;;;;;;;;;;;7.10;99.90;;;;;;5215579;27;43054;-80
2022/02/06 00:15:50;;;;;;;;;;;7.10;99.90;;;;;;5215580;27;43388;-80
2022/02/06 00:18:20;;;;;;;;;;;7.10;99.90;;;;;;5215636;27;42332;-80
2022/02/06 00:20:54;;;;;;;;;;;7.10;99.90;;;;;;5198078;27;44235;-80
2022/02/06 00:23:24;;;;;;;;;;;7.10;99.90;;;;;;5196670;27;45111;-80
2022/02/06 00:31:17;;;;;;;;;;;7.10;99.90;;;;;;5215542;27;44283;-79
2022/02/06 00:39:32;;;;;;;;;;;7.10;99.90;;;;;;5237043;27;42877;-80
2022/02/06 00:41:59;;;;;;;;;;;7.10;99.90;;;;;;5219966;27;43884;-80
2022/02/06 00:44:32;;;;;;;;;;;7.10;99.90;;;;;;5215879;27;46017;-80
2022/02/06 00:47:03;;;;;;;;;;;7.10;99.90;;;;;;5197176;27;44386;-80
2022/02/06 00:49:34;;;;;;;;;;;7.10;99.90;;;;;;5215416;27;43395;-80
2022/02/06 00:52:09;;;;;;;;;;;7.10;99.90;;;;;;5216027;27;44011;-80
2022/02/06 00:54:41;;;;;;;;;;;7.10;99.90;;;;;;5215361;27;42905;-80
2022/02/06 00:57:10;;;;;;;;;;;7.10;99.90;;;;;;5215279;27;43114;-79
2022/02/06 00:59:41;;;;;;;;;;;7.10;99.90;;;;;;5196437;27;43018;-80
2022/02/06 01:02:10;;;;;;;;;;;7.10;99.90;;;;;;5215015;27;44312;-80
2022/02/06 01:04:37;;;;;;;;;;;7.10;99.90;;;;;;5215799;27;43808;-79
2022/02/06 01:07:08;;;;;;;;;;;7.10;99.90;;;;;;5197353;27;44259;-80
2022/02/06 01:09:35;;;;;;;;;;;7.10;99.90;;;;;;5196493;27;43138;-79
2022/02/06 01:12:04;;;;;;;;;;;7.10;99.90;;;;;;5197066;27;44725;-80
2022/02/06 01:20:29;;;;;;;;;;;7.10;99.90;;;;;;5215833;27;44263;-80
2022/02/06 01:22:33;;;;;;;;;;;7.10;99.90;;;;;;5204605;27;42984;-79
2022/02/06 01:25:09;;;;;;;;;;;7.10;99.90;;;;;;5215852;27;44305;-79
2022/02/06 01:27:45;;;;;;;;;;;7.10;99.90;;;;;;5196497;27;42656;-79
2022/02/06 01:30:15;;;;;;;;;;;7.10;99.90;;;;;;5215224;27;43490;-80
2022/02/06 01:32:50;;;;;;;;;;;7.10;99.90;;;;;;5215255;27;43766;-80
2022/02/06 01:35:26;;;;;;;;;;;7.10;99.90;;;;;;5196348;27;43174;-79
2022/02/06 01:38:33;;;;;;;;;;;7.10;99.90;;;;;;5216426;27;19991;-79
2022/02/06 01:43:23;;;;;;;;;;;7.10;99.90;;;;;;5215123;27;42301;-79
2022/02/06 01:46:11;;;;;;;;;;;7.10;99.90;;;;;;5197077;27;44451;-80
2022/02/06 02:02:42;;;;;;;;;;;7.10;99.90;;;;;;5215039;27;43826;-79
2022/02/06 02:11:29;;;;;;;;;;;7.20;99.90;;;;;;5215719;27;44229;-79
2022/02/06 02:24:09;;;;;;;;;;;7.20;99.90;;;;;;5215408;27;43913;-79
2022/02/06 02:30:18;;;;;;;;;;;7.20;99.90;;;;;;5129347;28;42859;-79
2022/02/06 02:48:52;;;;;;;;;;;7.20;99.90;;;;;;5214868;27;44267;-80
2022/02/06 02:51:22;;;;;;;;;;;7.20;99.90;;;;;;5196725;27;43486;-79
2022/02/06 02:53:57;;;;;;;;;;;7.20;99.90;;;;;;5195967;27;45708;-79
2022/02/06 02:56:42;;;;;;;;;;;7.10;99.90;;;;;;5196024;27;43175;-79
2022/02/06 03:01:54;;;;;;;;;;;7.20;99.90;;;;;;5214616;27;43541;-80
2022/02/06 03:04:21;;;;;;;;;;;7.20;99.90;;;;;;5196938;27;44216;-79
2022/02/06 03:06:51;;;;;;;;;;;7.20;99.90;;;;;;5197355;27;43251;-79
2022/02/06 03:09:20;;;;;;;;;;;7.20;99.90;;;;;;5198416;27;20065;-79
2022/02/06 03:11:50;;;;;;;;;;;7.20;99.90;;;;;;5216052;27;43304;-79
2022/02/06 03:14:24;;;;;;;;;;;7.20;99.90;;;;;;5216535;27;44052;-79
2022/02/06 03:17:01;;;;;;;;;;;7.20;99.90;;;;;;5216040;27;42713;-79
2022/02/06 03:19:39;;;;;;;;;;;7.20;99.90;;;;;;5216437;27;44697;-79
2022/02/06 03:22:07;;;;;;;;;;;7.20;99.90;;;;;;5197423;27;43878;-79
2022/02/06 03:24:43;;;;;;;;;;;7.20;99.90;;;;;;5198306;27;43221;-79
2022/02/06 03:27:10;;;;;;;;;;;7.20;99.90;;;;;;5197937;27;42492;-80
2022/02/06 03:29:37;;;;;;;;;;;7.20;99.90;;;;;;5215933;27;43265;-79
2022/02/06 03:32:05;;;;;;;;;;;7.20;99.90;;;;;;5215858;27;44968;-79
2022/02/06 03:34:37;;;;;;;;;;;7.20;99.90;;;;;;5197605;27;44133;-79
2022/02/06 03:37:04;;;;;;;;;;;7.20;99.90;;;;;;5197073;27;42342;-79
2022/02/06 03:39:37;;;;;;;;;;;7.20;99.90;;;;;;5217418;27;19992;-79
2022/02/06 03:42:08;;;;;;;;;;;7.20;99.90;;;;;;5197752;27;43302;-79
2022/02/06 03:47:25;;;;;;;;;;;7.20;99.90;;;;;;5215928;27;44218;-80
2022/02/06 03:50:03;;;;;;;;;;;7.20;99.90;;;;;;5216707;27;44151;-80
2022/02/06 03:52:44;;;;;;;;;;;7.20;99.90;;;;;;5215859;27;43205;-79
2022/02/06 03:55:19;;;;;;;;;;;7.20;99.90;;;;;;5197591;27;43991;-79
2022/02/06 03:57:47;;;;;;;;;;;7.20;99.90;;;;;;5197013;27;43812;-79
2022/02/06 04:00:18;;;;;;;;;;;7.20;99.90;;;;;;5197488;27;46066;-79
2022/02/06 04:02:50;;;;;;;;;;;7.20;99.90;;;;;;5215525;27;43387;-79
2022/02/06 04:05:18;;;;;;;;;;;7.20;99.90;;;;;;5197339;27;44449;-79
2022/02/06 04:07:46;;;;;;;;;;;7.20;99.90;;;;;;5196944;27;44273;-79
2022/02/06 04:10:15;;;;;;;;;;;7.20;99.90;;;;;;5217377;27;20025;-79
2022/02/06 04:12:44;;;;;;;;;;;7.20;99.90;;;;;;5216268;27;44006;-80
2022/02/06 04:15:22;;;;;;;;;;;7.20;99.90;;;;;;5215580;27;44221;-79
2022/02/06 04:17:56;;;;;;;;;;;7.20;99.90;;;;;;5215306;27;44152;-79
2022/02/06 04:20:23;;;;;;;;;;;7.20;99.90;;;;;;5215668;27;43738;-79
2022/02/06 04:22:56;;;;;;;;;;;7.20;99.90;;;;;;5215613;27;42373;-79
2022/02/06 04:25:25;;;;;;;;;;;7.20;99.90;;;;;;5216173;27;43600;-79
2022/02/06 04:27:52;;;;;;;;;;;7.20;99.90;;;;;;5215467;27;43941;-79
2022/02/06 04:30:24;;;;;;;;;;;7.20;99.90;;;;;;5197228;27;44255;-79
2022/02/06 04:32:54;;;;;;;;;;;7.20;99.90;;;;;;5216112;27;43956;-79
2022/02/06 04:35:25;;;;;;;;;;;7.20;99.90;;;;;;5196620;27;45309;-79
2022/02/06 04:52:20;;;;;;;;;;;7.10;99.90;;;;;;5216023;27;43940;-79
2022/02/06 05:24:52;;;;;;;;;;;7.10;99.90;;;;;;5215540;27;44798;-79
2022/02/06 05:30:13;;;;;;;;;;;7.10;99.90;;;;;;5215159;27;43950;-78
2022/02/06 05:32:58;;;;;;;;;;;7.00;99.90;;;;;;5215597;27;45038;-78
2022/02/06 05:35:25;;;;;;;;;;;7.10;99.90;;;;;;5215869;27;44068;-78
2022/02/06 05:37:55;;;;;;;;;;;7.10;99.90;;;;;;5215250;27;44200;-78
2022/02/06 05:40:24;;;;;;;;;;;7.10;99.90;;;;;;5215033;27;42910;-78
2022/02/06 05:42:54;;;;;;;;;;;7.10;99.90;;;;;;5215209;27;43723;-78
2022/02/06 05:45:26;;;;;;;;;;;7.10;99.90;;;;;;5196814;27;43913;-78
2022/02/06 05:47:53;;;;;;;;;;;7.10;99.90;;;;;;5215062;27;42393;-78
2022/02/06 05:50:23;;;;;;;;;;;7.10;99.90;;;;;;5215370;27;45194;-78
2022/02/06 05:52:53;;;;;;;;;;;7.10;99.90;;;;;;5214950;27;44245;-78
2022/02/06 05:55:24;;;;;;;;;;;7.10;99.90;;;;;;5215655;27;44259;-78
2022/02/06 05:57:54;;;;;;;;;;;7.00;99.90;;;;;;5214959;27;43234;-78
2022/02/06 06:00:23;;;;;;;;;;;7.10;99.90;;;;;;5215003;27;42733;-78
2022/02/06 06:02:52;;;;;;;;;;;7.10;99.90;;;;;;5214733;27;42983;-78
2022/02/06 06:05:22;;;;;;;;;;;7.10;99.90;;;;;;5214989;27;43356;-78
2022/02/06 06:07:49;;;;;;;;;;;7.10;99.90;;;;;;5215050;27;42296;-79
2022/02/06 06:10:16;;;;;;;;;;;7.10;99.90;;;;;;5196807;27;44066;-78
2022/02/06 06:12:48;;;;;;;;;;;7.10;99.90;;;;;;5196985;27;20022;-78
2022/02/06 06:15:15;;;;;;;;;;;7.00;99.90;;;;;;5196175;27;45100;-79
2022/02/06 06:17:48;;;;;;;;;;;7.00;99.90;;;;;;5214962;27;43522;-79
2022/02/06 06:20:19;;;;;;;;;;;7.10;99.90;;;;;;5196208;27;44202;-78
2022/02/06 06:22:48;;;;;;;;;;;7.10;99.90;;;;;;5196917;27;43939;-79
2022/02/06 06:25:15;;;;;;;;;;;7.10;99.90;;;;;;5196046;27;43530;-79
2022/02/06 06:27:42;;;;;;;;;;;7.10;99.90;;;;;;5215480;27;43908;-79
2022/02/06 06:30:10;;;;;;;;;;;7.10;99.90;;;;;;5214877;27;44143;-79
2022/02/06 06:32:39;;;;;;;;;;;7.00;99.90;;;;;;5196877;27;44133;-78
2022/02/06 06:35:09;;;;;;;;;;;7.00;99.90;;;;;;5214869;27;43080;-78
2022/02/06 06:37:39;;;;;;;;;;;7.10;99.90;;;;;;5214833;27;43205;-78
2022/02/06 06:40:11;;;;;;;;;;;7.00;99.90;;;;;;5197126;27;43273;-78
2022/02/06 06:42:38;;;;;;;;;;;7.00;99.90;;;;;;5216982;27;43164;-78
2022/02/06 06:45:09;;;;;;;;;;;7.00;99.90;;;;;;5216125;27;43051;-79
2022/02/06 06:47:36;;;;;;;;;;;7.00;99.90;;;;;;5198215;27;43052;-79
2022/02/06 06:50:05;;;;;;;;;;;7.10;99.90;;;;;;5216172;27;44731;-79
2022/02/06 06:52:35;;;;;;;;;;;7.10;99.90;;;;;;5197791;27;44066;-79
2022/02/06 06:55:04;;;;;;;;;;;7.00;99.90;;;;;;5216173;27;46016;-79
2022/02/06 06:57:41;;;;;;;;;;;7.00;99.90;;;;;;5216151;27;43917;-79
2022/02/06 07:00:22;;;;;;;;;;;7.00;99.90;;;;;;5197402;27;43864;-78
2022/02/06 07:02:50;;;;;;;;;;;7.00;99.90;;;;;;5197639;27;44009;-78
2022/02/06 07:05:17;;;;;;;;;;;7.00;99.90;;;;;;5197102;27;44230;-78
2022/02/06 07:07:47;;;;;;;;;;;7.00;99.90;;;;;;5197213;27;43932;-78
2022/02/06 07:10:14;;;;;;;;;;;7.00;99.90;;;;;;5216040;27;42859;-78
2022/02/06 07:12:41;;;;;;;;;;;7.00;99.90;;;;;;5197766;27;44288;-78
2022/02/06 07:15:08;;;;;;;;;;;7.00;99.90;;;;;;5216054;27;43795;-78
2022/02/06 07:17:35;;;;;;;;;;;7.00;99.90;;;;;;5215982;27;44207;-79
2022/02/06 07:20:03;;;;;;;;;;;7.00;99.90;;;;;;5197282;27;43071;-78
2022/02/06 07:22:37;;;;;;;;;;;7.10;99.90;;;;;;5198122;27;44589;-78
2022/02/06 07:25:05;;;;;;;;;;;7.00;99.90;;;;;;5216165;27;42972;-78
2022/02/06 07:27:38;;;;;;;;;;;7.00;99.90;;;;;;5215838;27;43703;-79
2022/02/06 07:30:07;;;;;;;;;;;7.10;99.90;;;;;;5197200;27;43263;-78
2022/02/06 07:32:39;;;;;;;;;;;7.00;99.90;;;;;;5197627;27;44259;-78
2022/02/06 07:35:08;;;;;;;;;;;7.00;99.90;;;;;;5197845;27;43890;-79
2022/02/06 07:37:41;;;;;;;;;;;7.00;99.90;;;;;;5215780;27;44076;-78
2022/02/06 07:40:08;;;;;;;;;;;7.10;99.90;;;;;;5197752;27;44257;-78
2022/02/06 07:42:38;;;;;;;;;;;7.00;99.90;;;;;;5216338;27;44205;-79
2022/02/06 07:45:09;;;;;;;;;;;7.10;99.90;;;;;;5197824;27;43313;-79
2022/02/06 07:47:38;;;;;;;;;;;7.00;99.90;;;;;;5216439;27;44232;-79
2022/02/06 07:50:08;;;;;;;;;;;7.00;99.90;;;;;;5198048;27;43589;-79
2022/02/06 07:52:38;;;;;;;;;;;7.10;99.90;;;;;;5196628;27;42942;-78
2022/02/06 07:55:07;;;;;;;;;;;7.10;99.90;;;;;;5197404;27;43222;-79
2022/02/06 07:57:35;;;;;;;;;;;7.10;99.90;;;;;;5216155;27;43503;-78
2022/02/06 08:00:05;;;;;;;;;;;7.10;99.90;;;;;;5215526;27;45809;-78
2022/02/06 08:02:32;;;;;;;;;;;7.10;99.90;;;;;;5215629;27;42609;-79
2022/02/06 08:05:02;;;;;;;;;;;7.10;99.90;;;;;;5196687;27;44255;-78
2022/02/06 08:07:30;;;;;;;;;;;7.10;99.90;;;;;;5215531;27;42994;-79
2022/02/06 08:09:59;;;;;;;;;;;7.10;99.90;;;;;;5215489;27;42948;-79
2022/02/06 08:12:44;;;;;;;;;;;7.10;99.90;;;;;;5215591;27;43333;-79
2022/02/06 08:15:12;;;;;;;;;;;7.10;99.90;;;;;;5197676;27;19996;-79
2022/02/06 08:17:42;;;;;;;;;;;7.10;99.90;;;;;;5215390;27;42777;-79
2022/02/06 08:20:11;;;;;;;;;;;7.10;99.90;;;;;;5215928;27;43962;-79
2022/02/06 08:22:38;;;;;;;;;;;7.10;99.90;;;;;;5196597;27;43573;-78
2022/02/06 08:25:06;;;;;;;;;;;7.10;99.90;;;;;;5196639;27;44015;-79
2022/02/06 08:27:37;;;;;;;;;;;7.10;99.90;;;;;;5216343;27;43577;-79
2022/02/06 08:30:05;;;;;;;;;;;7.10;99.90;;;;;;5196791;27;42517;-78
2022/02/06 08:32:33;;;;;;;;;;;7.10;99.90;;;;;;5215576;27;42349;-79
2022/02/06 08:35:00;;;;;;;;;;;7.10;99.90;;;;;;5216196;27;44219;-79
2022/02/06 08:37:30;;;;;;;;;;;7.10;99.90;;;;;;5216096;27;44092;-78
2022/02/06 08:40:06;;;;;;;;;;;7.10;99.90;;;;;;5196646;27;42780;-83
2022/02/06 08:42:33;;;;;;;;;;;7.10;99.90;;;;;;5215483;27;42681;-79
2022/02/06 08:45:04;;;;;;;;;;;7.10;99.90;;;;;;5216014;27;44153;-79
2022/02/06 08:47:31;;;;;;;;;;;7.10;99.90;;;;;;5196559;27;44062;-79
2022/02/06 08:50:04;;;;;;;;;;;7.10;99.90;;;;;;5197608;27;44106;-79
2022/02/06 08:52:31;;;;;;;;;;;7.10;99.90;;;;;;5215318;27;43724;-79
2022/02/06 08:55:00;;;;;;;;;;;7.10;99.90;;;;;;5215193;27;44438;-79
2022/02/06 08:57:27;;;;;;;;;;;7.10;99.90;;;;;;5215363;27;43415;-79
2022/02/06 08:59:57;;;;;;;;;;;7.10;99.90;;;;;;5196889;27;44078;-79
2022/02/06 09:02:24;;;;;;;;;;;7.10;99.90;;;;;;5215469;27;44362;-79
2022/02/06 09:04:52;;;;;;;;;;;7.10;99.90;;;;;;5196564;27;39686;-79
2022/02/06 09:07:20;;;;;;;;;;;7.10;99.90;;;;;;5196549;27;42774;-79
2022/02/06 09:09:56;;;;;;;;;;;7.10;99.90;;;;;;5197501;27;43698;-79
2022/02/06 09:12:24;;;;;;;;;;;7.10;99.90;;;;;;5196501;27;44179;-79
2022/02/06 09:14:51;;;;;;;;;;;7.20;99.90;;;;;;5196282;27;44581;-79
2022/02/06 09:17:21;;;;;;;;;;;7.10;99.90;;;;;;5196447;27;42958;-79
2022/02/06 09:19:48;;;;;;;;;;;7.20;99.90;;;;;;5215188;27;43533;-79
2022/02/06 09:22:24;;;;;;;;;;;7.20;99.90;;;;;;5196818;27;43654;-79
2022/02/06 09:24:51;;;;;;;;;;;7.20;99.90;;;;;;5196600;27;42768;-79
2022/02/06 09:27:18;;;;;;;;;;;7.20;99.90;;;;;;5196240;27;43311;-79
2022/02/06 09:29:45;;;;;;;;;;;7.20;99.90;;;;;;5215135;27;43004;-78
2022/02/06 09:37:33;;;;;;;;;;;7.20;99.90;;;;;;5215047;27;44247;-79
2022/02/06 09:40:00;;;;;;;;;;;7.20;99.90;;;;;;5215002;27;43992;-79
2022/02/06 09:42:28;;;;;;;;;;;7.20;99.90;;;;;;5215736;27;43992;-79
2022/02/06 09:44:59;;;;;;;;;;;7.10;99.90;;;;;;5196289;27;44040;-79
2022/02/06 09:47:31;;;;;;;;;;;7.20;99.90;;;;;;5196090;27;45842;-79
2022/02/06 09:49:59;;;;;;;;;;;7.20;99.90;;;;;;5197013;27;43270;-79
2022/02/06 09:52:29;;;;;;;;;;;7.20;99.90;;;;;;5197005;27;43989;-79
2022/02/06 09:55:07;;;;;;;;;;;7.20;99.90;;;;;;5215056;27;43807;-78
2022/02/06 10:00:28;;;;;;;;;;;7.20;99.90;;;;;;5215673;27;44288;-79
2022/02/06 10:03:02;;;;;;;;;;;7.20;99.90;;;;;;5196066;27;44009;-79
2022/02/06 10:05:33;;;;;;;;;;;7.20;99.90;;;;;;5196257;27;42788;-79
2022/02/06 10:08:11;;;;;;;;;;;7.20;99.90;;;;;;5215717;27;43529;-79
2022/02/06 10:10:41;;;;;;;;;;;7.20;99.90;;;;;;5196990;27;43437;-79
2022/02/06 10:13:09;;;;;;;;;;;7.20;99.90;;;;;;5214998;27;42992;-79
2022/02/06 10:15:39;;;;;;;;;;;7.20;99.90;;;;;;5197221;27;44368;-79
2022/02/06 10:18:06;;;;;;;;;;;7.20;99.90;;;;;;5216452;27;44094;-79
2022/02/06 10:20:42;;;;;;;;;;;7.20;99.90;;;;;;5216348;27;42356;-79
2022/02/06 10:23:23;;;;;;;;;;;7.20;99.90;;;;;;5216946;27;43797;-79
2022/02/06 10:26:04;;;;;;;;;;;7.20;99.90;;;;;;5198503;27;46164;-79
2022/02/06 10:31:03;;;;;;;;;;;7.20;99.90;;;;;;5216330;27;42735;-79
2022/02/06 10:33:50;;;;;;;;;;;7.30;99.90;;;;;;5216470;27;42288;-79
2022/02/06 10:36:21;;;;;;;;;;;7.30;99.90;;;;;;5216874;27;43179;-79
2022/02/06 10:38:58;;;;;;;;;;;7.30;99.90;;;;;;5198151;27;44988;-79
2022/02/06 10:41:26;;;;;;;;;;;7.30;99.90;;;;;;5197868;27;44234;-79
2022/02/06 10:44:04;;;;;;;;;;;7.30;99.90;;;;;;5197444;27;43356;-79
2022/02/06 10:46:32;;;;;;;;;;;7.30;99.90;;;;;;5216109;27;44435;-79
2022/02/06 10:49:01;;;;;;;;;;;7.30;99.90;;;;;;5217843;27;19995;-79
2022/02/06 10:51:44;;;;;;;;;;;7.30;99.90;;;;;;5197325;27;42891;-79
2022/02/06 10:54:14;;;;;;;;;;;7.30;99.90;;;;;;5197399;27;42678;-79
2022/02/06 10:57:01;;;;;;;;;;;7.30;99.90;;;;;;5197452;27;43419;-79
2022/02/06 10:59:28;;;;;;;;;;;7.30;99.90;;;;;;5216680;27;43529;-80
2022/02/06 11:01:55;;;;;;;;;;;7.30;99.90;;;;;;5197274;27;44026;-79
2022/02/06 11:04:33;;;;;;;;;;;7.30;99.90;;;;;;5197247;27;43752;-79
2022/02/06 11:07:12;;;;;;;;;;;7.30;99.90;;;;;;5216356;27;44044;-79
2022/02/06 11:09:42;;;;;;;;;;;7.30;99.90;;;;;;5197181;27;43892;-79
2022/02/06 11:12:10;;;;;;;;;;;7.30;99.90;;;;;;5197309;27;44129;-80
2022/02/06 11:14:45;;;;;;;;;;;7.30;99.90;;;;;;5216099;27;44279;-81
2022/02/06 11:17:19;;;;;;;;;;;7.40;99.90;;;;;;5216674;27;43943;-79
2022/02/06 11:20:06;;;;;;;;;;;7.30;99.90;;;;;;5198628;27;20314;-79
2022/02/06 11:22:35;;;;;;;;;;;7.40;99.90;;;;;;5216044;27;42839;-80
2022/02/06 11:25:07;;;;;;;;;;;7.30;99.90;;;;;;5215914;27;43301;-80
2022/02/06 11:27:34;;;;;;;;;;;7.40;99.90;;;;;;5216478;27;44274;-79
2022/02/06 11:30:04;;;;;;;;;;;7.40;99.90;;;;;;5197530;27;44067;-80
2022/02/06 11:32:31;;;;;;;;;;;7.40;99.90;;;;;;5216015;27;43991;-79
2022/02/06 11:35:03;;;;;;;;;;;7.40;99.90;;;;;;5197102;27;43319;-79
2022/02/06 11:43:52;;;;;;;;;;;7.40;99.90;;;;;;5216494;27;44931;-80
2022/02/06 11:46:27;;;;;;;;;;;7.40;99.90;;;;;;5198028;27;44060;-79
2022/02/06 11:48:59;;;;;;;;;;;7.40;99.90;;;;;;5196837;27;43564;-80
2022/02/06 11:51:27;;;;;;;;;;;7.50;99.90;;;;;;5197842;27;20034;-80
2022/02/06 11:54:19;;;;;;;;;;;7.50;99.90;;;;;;5197629;27;44217;-80
2022/02/06 11:56:46;;;;;;;;;;;7.50;99.90;;;;;;5216027;27;43231;-80
2022/02/06 11:59:13;;;;;;;;;;;7.50;99.90;;;;;;5215630;27;43583;-80
2022/02/06 12:01:42;;;;;;;;;;;7.50;99.90;;;;;;5215929;27;44442;-80
2022/02/06 12:04:23;;;;;;;;;;;7.60;99.90;;;;;;5215679;27;42821;-80
2022/02/06 12:06:57;;;;;;;;;;;7.60;99.90;;;;;;5196791;27;42923;-80
2022/02/06 12:09:29;;;;;;;;;;;7.60;99.90;;;;;;5196891;27;44218;-80
2022/02/06 12:12:08;;;;;;;;;;;7.60;99.90;;;;;;5215990;27;43346;-80
2022/02/06 12:14:39;;;;;;;;;;;7.60;99.90;;;;;;5215558;27;44157;-80
2022/02/06 12:17:18;;;;;;;;;;;7.70;99.90;;;;;;5196892;27;43234;-80
2022/02/06 12:20:00;;;;;;;;;;;7.70;99.90;;;;;;5196772;27;43107;-80
2022/02/06 12:22:30;;;;;;;;;;;7.70;99.90;;;;;;5216486;27;22494;-80
2022/02/06 12:25:16;;;;;;;;;;;7.80;99.90;;;;;;5215532;27;44267;-80
2022/02/06 12:27:43;;;;;;;;;;;7.80;99.90;;;;;;5197547;27;44290;-80
2022/02/06 12:30:21;;;;;;;;;;;7.80;99.90;;;;;;5197342;27;43966;-80
2022/02/06 12:32:48;;;;;;;;;;;7.80;99.90;;;;;;5197299;27;45590;-80
2022/02/06 12:38:08;;;;;;;;;;;7.80;99.90;;;;;;5215650;27;43925;-80
2022/02/06 12:40:38;;;;;;;;;;;7.80;99.90;;;;;;5215446;27;44586;-80
2022/02/06 12:43:08;;;;;;;;;;;7.80;99.90;;;;;;5197094;27;43828;-80
2022/02/06 12:45:40;;;;;;;;;;;7.70;99.90;;;;;;5196980;27;44626;-80
2022/02/06 12:48:09;;;;;;;;;;;7.70;99.90;;;;;;5215230;27;43787;-80
2022/02/06 12:50:43;;;;;;;;;;;7.60;99.90;;;;;;5197655;27;43204;-80
2022/02/06 12:53:17;;;;;;;;;;;7.60;99.90;;;;;;5216733;27;19984;-80
2022/02/06 12:55:46;;;;;;;;;;;7.60;99.90;;;;;;5196620;27;44113;-81
2022/02/06 12:58:19;;;;;;;;;;;7.50;99.90;;;;;;5196410;27;44163;-80
2022/02/06 13:00:52;;;;;;;;;;;7.50;99.90;;;;;;5197283;27;43937;-80
2022/02/06 13:03:28;;;;;;;;;;;7.50;99.90;;;;;;5215133;27;43279;-80
2022/02/06 13:06:07;;;;;;;;;;;7.50;99.90;;;;;;5197080;27;44300;-80
2022/02/06 13:08:37;;;;;;;;;;;7.50;99.90;;;;;;5215148;27;43556;-80
2022/02/06 13:11:11;;;;;;;;;;;7.50;99.90;;;;;;5215053;27;43361;-79
2022/02/06 13:14:04;;;;;;;;;;;7.50;99.90;;;;;;5197626;27;44674;-79
2022/02/06 13:22:17;;;;;;;;;;;7.50;99.90;;;;;;5215458;27;43463;-80
2022/02/06 13:25:15;;;;;;;;;;;7.50;99.90;;;;;;5216758;27;20007;-79
2022/02/06 13:28:20;;;;;;;;;;;7.50;99.90;;;;;;5214848;27;44210;-80
2022/02/06 13:33:32;;;;;;;;;;;7.40;99.90;;;;;;5226112;27;43212;-80
2022/02/06 13:36:10;;;;;;;;;;;7.40;99.90;;;;;;5196810;27;46032;-80
2022/02/06 13:38:37;;;;;;;;;;;7.40;99.90;;;;;;5196541;27;43225;-79
2022/02/06 13:41:11;;;;;;;;;;;7.40;99.90;;;;;;5215720;27;45238;-80
2022/02/06 13:43:41;;;;;;;;;;;7.40;99.90;;;;;;5196367;27;43176;-80
2022/02/06 13:46:13;;;;;;;;;;;7.40;99.90;;;;;;5196492;27;43872;-80
2022/02/06 13:48:41;;;;;;;;;;;7.40;99.90;;;;;;5195906;27;43463;-80
2022/02/06 13:51:11;;;;;;;;;;;7.30;99.90;;;;;;5215665;27;42844;-80
2022/02/06 13:53:57;;;;;;;;;;;7.30;99.90;;;;;;5214875;27;43034;-80
2022/02/06 13:56:24;;;;;;;;;;;7.30;99.90;;;;;;5215856;27;20411;-81
2022/02/06 13:59:00;;;;;;;;;;;7.30;99.90;;;;;;5196405;27;43495;-81
2022/02/06 14:01:46;;;;;;;;;;;7.30;99.90;;;;;;5195953;27;43284;-81
2022/02/06 14:04:26;;;;;;;;;;;7.30;99.90;;;;;;5214919;27;43479;-81
2022/02/06 14:07:10;;;;;;;;;;;7.20;99.90;;;;;;5196184;27;44383;-81
2022/02/06 14:12:19;;;;;;;;;;;7.20;99.90;;;;;;5215612;27;43861;-81
2022/02/06 14:14:54;;;;;;;;;;;7.20;99.90;;;;;;5196821;27;44075;-81
2022/02/06 14:17:45;;;;;;;;;;;7.20;99.90;;;;;;5215679;27;44224;-81
2022/02/06 14:20:35;;;;;;;;;;;7.20;99.90;;;;;;5196153;27;43187;-81
2022/02/06 14:23:06;;;;;;;;;;;7.20;99.90;;;;;;5215378;27;45037;-81
2022/02/06 14:25:39;;;;;;;;;;;7.20;99.90;;;;;;5215558;27;43418;-81
2022/02/06 14:28:30;;;;;;;;;;;7.20;99.90;;;;;;5196975;27;19984;-81
2022/02/06 14:31:00;;;;;;;;;;;7.20;99.90;;;;;;5215558;27;43978;-81
2022/02/06 14:33:28;;;;;;;;;;;7.20;99.90;;;;;;5215386;27;45509;-81
2022/02/06 14:36:02;;;;;;;;;;;7.20;99.90;;;;;;5214824;27;44058;-81
2022/02/06 14:43:55;;;;;;;;;;;7.20;99.90;;;;;;5215627;27;43221;-81
2022/02/06 14:46:22;;;;;;;;;;;7.20;99.90;;;;;;5195979;27;45939;-81
2022/02/06 14:48:49;;;;;;;;;;;7.20;99.90;;;;;;5214798;27;43980;-81
2022/02/06 14:51:22;;;;;;;;;;;7.20;99.90;;;;;;5197239;27;43267;-82
2022/02/06 14:53:54;;;;;;;;;;;7.30;99.90;;;;;;5214862;27;43139;-81
2022/02/06 14:56:24;;;;;;;;;;;7.20;99.90;;;;;;5197065;27;43974;-81
2022/02/06 14:58:52;;;;;;;;;;;7.20;99.90;;;;;;5215798;27;19987;-81
2022/02/06 15:01:21;;;;;;;;;;;7.30;99.90;;;;;;5197733;27;43248;-81
2022/02/06 15:03:48;;;;;;;;;;;7.30;99.90;;;;;;5216580;27;43163;-81
2022/02/06 15:06:15;;;;;;;;;;;7.30;99.90;;;;;;5197190;27;44321;-81
2022/02/06 15:08:42;;;;;;;;;;;7.30;99.90;;;;;;5215973;27;44145;-81
2022/02/06 15:11:11;;;;;;;;;;;7.30;99.90;;;;;;5197484;27;42636;-81
2022/02/06 15:13:38;;;;;;;;;;;7.30;99.90;;;;;;5198113;27;43918;-81
2022/02/06 15:16:12;;;;;;;;;;;7.30;99.90;;;;;;5197442;27;42705;-81
2022/02/06 15:18:46;;;;;;;;;;;7.30;99.90;;;;;;5216709;27;44182;-81
2022/02/06 15:21:15;;;;;;;;;;;7.30;99.90;;;;;;5198101;27;45697;-81
2022/02/06 15:23:42;;;;;;;;;;;7.30;99.90;;;;;;5197866;27;43854;-79
2022/02/06 15:26:09;;;;;;;;;;;7.30;99.90;;;;;;5216037;27;44225;-81
2022/02/06 15:28:36;;;;;;;;;;;7.30;99.90;;;;;;5197074;27;45476;-81
2022/02/06 15:31:07;;;;;;;;;;;7.30;99.90;;;;;;5215838;27;43314;-81
2022/02/06 15:33:35;;;;;;;;;;;7.30;99.90;;;;;;5215887;27;43086;-81
2022/02/06 15:36:04;;;;;;;;;;;7.30;99.90;;;;;;5197949;27;43992;-81
2022/02/06 15:38:32;;;;;;;;;;;7.30;99.90;;;;;;5216034;27;44316;-81
2022/02/06 15:41:00;;;;;;;;;;;7.20;99.90;;;;;;5197120;27;44238;-81
2022/02/06 15:43:28;;;;;;;;;;;7.20;99.90;;;;;;5215852;27;42642;-81
2022/02/06 15:45:55;;;;;;;;;;;7.20;99.90;;;;;;5215963;27;42707;-81
2022/02/06 15:48:22;;;;;;;;;;;7.20;99.90;;;;;;5196827;27;45637;-81
2022/02/06 15:50:49;;;;;;;;;;;7.20;99.90;;;;;;5215827;27;43522;-81
2022/02/06 15:53:16;;;;;;;;;;;7.20;99.90;;;;;;5215776;27;42949;-81
2022/02/06 15:55:44;;;;;;;;;;;7.30;99.90;;;;;;5197486;27;43451;-81
2022/02/06 15:58:11;;;;;;;;;;;7.30;99.90;;;;;;5196897;27;44288;-81
2022/02/06 16:00:38;;;;;;;;;;;7.30;99.90;;;;;;5197060;27;44068;-81
2022/02/06 16:03:05;;;;;;;;;;;7.30;99.90;;;;;;5215707;27;43994;-81
2022/02/06 16:05:32;;;;;;;;;;;7.30;99.90;;;;;;5215630;27;43937;-81
2022/02/06 16:08:00;;;;;;;;;;;7.30;99.90;;;;;;5215624;27;42452;-81
2022/02/06 16:10:27;;;;;;;;;;;7.30;99.90;;;;;;5215652;27;42879;-81
2022/02/06 16:12:55;;;;;;;;;;;7.30;99.90;;;;;;5215240;27;42477;-81
2022/02/06 16:15:25;;;;;;;;;;;7.30;99.90;;;;;;5197706;27;42771;-81
2022/02/06 16:17:54;;;;;;;;;;;7.30;99.90;;;;;;5196884;27;42927;-81
2022/02/06 16:20:21;;;;;;;;;;;7.30;99.90;;;;;;5196731;27;42611;-81
2022/02/06 16:22:48;;;;;;;;;;;7.40;99.90;;;;;;5197446;27;43530;-81
2022/02/06 16:25:16;;;;;;;;;;;7.30;99.90;;;;;;5216253;27;43946;-81
2022/02/06 16:27:43;;;;;;;;;;;7.30;99.90;;;;;;5216055;27;44603;-81
2022/02/06 16:30:13;;;;;;;;;;;7.40;99.90;;;;;;5216714;27;20337;-81
2022/02/06 16:32:41;;;;;;;;;;;7.40;99.90;;;;;;5216136;27;44241;-81
2022/02/06 16:35:08;;;;;;;;;;;7.40;99.90;;;;;;5196585;27;44725;-81
2022/02/06 16:37:41;;;;;;;;;;;7.40;99.90;;;;;;5198043;27;43908;-81
2022/02/06 16:40:08;;;;;;;;;;;7.40;99.90;;;;;;5196620;27;42712;-81
2022/02/06 16:42:35;;;;;;;;;;;7.40;99.90;;;;;;5216271;27;44161;-81
2022/02/06 16:45:03;;;;;;;;;;;7.40;99.90;;;;;;5196990;27;42945;-81
2022/02/06 16:47:30;;;;;;;;;;;7.40;99.90;;;;;;5196554;27;43980;-81
2022/02/06 16:49:57;;;;;;;;;;;7.40;99.90;;;;;;5197299;27;44008;-82
2022/02/06 16:52:24;;;;;;;;;;;7.40;99.90;;;;;;5215418;27;43028;-81
2022/02/06 16:54:54;;;;;;;;;;;7.40;99.90;;;;;;5215262;27;44263;-81
2022/02/06 16:57:21;;;;;;;;;;;7.40;99.90;;;;;;5215322;27;44157;-81
2022/02/06 16:59:48;;;;;;;;;;;7.40;99.90;;;;;;5215991;27;44238;-81
2022/02/06 17:02:15;;;;;;;;;;;7.50;99.90;;;;;;5196637;27;43287;-81
2022/02/06 17:04:43;;;;;;;;;;;7.40;99.90;;;;;;5215246;27;43963;-81
2022/02/06 17:07:10;;;;;;;;;;;7.40;99.90;;;;;;5196461;27;43244;-81
2022/02/06 17:09:39;;;;;;;;;;;7.50;99.90;;;;;;5196942;27;43878;-81
2022/02/06 17:12:07;;;;;;;;;;;7.40;99.90;;;;;;5215240;27;44212;-81
2022/02/06 17:14:36;;;;;;;;;;;7.50;99.90;;;;;;5196622;27;43919;-82
2022/02/06 17:17:03;;;;;;;;;;;7.50;99.90;;;;;;5215605;27;43891;-82
2022/02/06 17:19:31;;;;;;;;;;;7.50;99.90;;;;;;5215177;27;43064;-82
2022/02/06 17:21:58;;;;;;;;;;;7.50;99.90;;;;;;5196363;27;42904;-81
2022/02/06 17:24:27;;;;;;;;;;;7.50;99.90;;;;;;5215140;27;42133;-82
2022/02/06 17:26:54;;;;;;;;;;;7.50;99.90;;;;;;5196396;27;42669;-81
2022/02/06 17:29:27;;;;;;;;;;;7.50;99.90;;;;;;5196872;27;43812;-81
2022/02/06 17:31:57;;;;;;;;;;;7.50;99.90;;;;;;5215065;27;45099;-81